Oklahoma City, OK

3:55 PM CDT on October 23, 2014 (GMT -0500)
Crestwood | Change Station
CLOSE
Current Station
Personal Weather Station
Location: Oklahoma City, OK
Elevation: 1257 ft
Nearby Weather Stations

Elev 1257 ft 35.49 °N, 97.56 °W | Updated 10 seconds ago

Clear
Clear
78.4 °F
Feels Like 80 °F
N
1.1
Wind Variable Wind from East
Gusts 2.5 mph

Today
High -- | Low -- °F
--% Chance of Precip.
Yesterday
High -- | Low -- °F
Precip. -- in
7:43 AM 6:44 PM
Waning Crescent, 0% visible
Pressure 30.02 in
Visibility 10.0 miles
Clouds Clear
Heat Index 80 °F
Dew Point 65 °F
Humidity 64%
Rainfall 0.00 in
Snow Depth Not available.
UV 5 out of 12
Pollen 5.10 out of 12
Ozone Good
PM2.5 Good
Flu Activity No Activity
METAR KPWA 231953Z 21008KT 10SM CLR 25/15 A3005 RMK AO2 SLP166 T02500150

More Conditions Fewer Conditions

Pressure 30.02 in
Visibility 10.0 miles
Clouds Clear
Heat Index 80 °F
Dew Point 65 °F
Humidity 64%
Rainfall 0.00 in
Snow Depth Not available.
UV 5 out of 12
Pollen 5.10 out of 12
Ozone Good
PM2.5 Good
Flu Activity No Activity
METAR KPWA 231953Z 21008KT 10SM CLR 25/15 A3005 RMK AO2 SLP166 T02500150

More Conditions Fewer Conditions

10-Day Weather Forecast

Almanac

Astronomy

Oct. 23, 2014 Rise Set
Actual Time 7:43 AM CDT 6:44 PM CDT
Civil Twilight 7:17 AM CDT 7:10 PM CDT
Nautical Twilight 6:47 AM CDT 7:40 PM CDT
Astronomical Twilight 6:18 AM CDT 8:10 PM CDT
Moon 7:25 AM CDT 6:47 PM CDT
Length of Visible Light 11h 53m
Length of Day
11h 01m
Tomorrow will be 2m 4s shorter.
Waning Crescent, 0% of the Moon is Illuminated
Today
Waning Crescent
Oct 23
New
Oct 30
First Quarter
Nov 6
Full
Nov 14
Last Quarter

Today's Extremes

State Highs State Lows

Community

WunderPhotos

Upload Photos

1,764,362 photos uploaded!

WunderBlogs® & News

By Dr. Jeff Masters
Director of Meteorology, Weather Underground
By Kari Strenfel
Meteorologist, Weather Underground
By Christopher C. Burt
Weather Historian, Weather Underground
October 23, 2014
October 23, 2014
October 23, 2014

Nearby

Air Quality

  Air Quality AQ Index Pollutant
Yesterday Moderate
PM2.5
Yesterday Good
OZONE
Current Good
PM2.5
Current Good
OZONE
Thursday Moderate
PM2.5
Thursday Moderate
OZONE
Friday Moderate
OZONE
Friday Good
PM2.5
Saturday Moderate
OZONE
Saturday Good
PM2.5

Snow Depth

Station Depth Elevation
No new snow has been reported.

Earthquake Activity

City Distance Mag. Time & Date
Medford, Oklahoma 80 miles 3.0 2:06 AM CDT
2014-10-23
Pawnee, Oklahoma 70 miles 2.7 1:06 AM CDT
2014-10-23
Luther, Oklahoma 21 miles 2.5 10:36 PM CDT
2014-10-22
Crescent, Oklahoma 44 miles 2.7 9:58 PM CDT
2014-10-22
Minimum magnitude displayed is 2.5.

Coastal Water Temperatures

Place Temperature
No Stations Reporting

Nearby Weather Stations